createdAt,value
2022-10-13T00:00:29.185Z,33.95
2022-10-13T00:02:55.886Z,33.30
2022-10-13T00:05:22.585Z,33.15
2022-10-13T00:07:49.296Z,33.85
2022-10-13T00:10:16.113Z,34.47
2022-10-13T00:12:42.823Z,32.67
2022-10-13T00:15:10.224Z,32.75
2022-10-13T00:17:37.155Z,31.25
2022-10-13T00:20:06.330Z,28.83
2022-10-13T00:22:33.243Z,30.77
2022-10-13T00:25:05.155Z,30.65
2022-10-13T00:27:31.901Z,33.08
2022-10-13T00:29:59.541Z,33.10
2022-10-13T00:32:26.235Z,31.92
2022-10-13T00:34:53.021Z,34.35
2022-10-13T00:37:19.605Z,34.15
2022-10-13T00:39:46.278Z,34.25
2022-10-13T00:42:13.854Z,34.15
2022-10-13T00:45:04.083Z,33.55
2022-10-13T00:47:38.827Z,35.22
2022-10-13T00:50:10.021Z,34.95
2022-10-13T00:52:37.656Z,32.42
2022-10-13T00:55:07.829Z,34.67
2022-10-13T00:57:35.063Z,33.67
2022-10-13T01:00:04.960Z,35.45
2022-10-13T01:02:35.676Z,32.92
2022-10-13T01:05:04.021Z,32.50
2022-10-13T01:07:31.619Z,32.00
2022-10-13T01:10:01.489Z,32.45
2022-10-13T01:12:40.389Z,32.97
2022-10-13T01:15:14.953Z,30.63
2022-10-13T01:18:16.721Z,32.13
2022-10-13T01:20:54.142Z,32.45
2022-10-13T01:23:29.681Z,34.53
2022-10-13T01:26:02.506Z,35.97
2022-10-13T01:28:55.498Z,35.67
2022-10-13T01:31:35.343Z,35.20
2022-10-13T01:34:07.867Z,35.60
2022-10-13T01:36:53.603Z,35.20
2022-10-13T01:39:27.034Z,32.60
2022-10-13T01:42:00.969Z,31.13
2022-10-13T01:44:34.407Z,34.97
2022-10-13T01:47:02.677Z,33.03
2022-10-13T01:49:34.375Z,33.28
2022-10-13T01:52:06.398Z,32.88
2022-10-13T01:54:33.355Z,34.05
2022-10-13T01:57:00.161Z,30.90
2022-10-13T01:59:29.839Z,30.75
2022-10-13T02:02:05.712Z,30.80
2022-10-13T02:04:50.784Z,29.90
2022-10-13T02:07:38.922Z,31.38
2022-10-13T02:10:23.294Z,29.05
2022-10-13T02:12:51.041Z,32.88
2022-10-13T02:15:22.433Z,31.60
2022-10-13T02:17:51.288Z,30.67
2022-10-13T02:20:20.211Z,28.17
2022-10-13T02:22:49.145Z,29.75
2022-10-13T02:25:15.778Z,29.85
2022-10-13T02:27:42.439Z,31.52
2022-10-13T02:30:09.789Z,30.17
2022-10-13T02:32:36.447Z,30.80
2022-10-13T02:35:03.333Z,30.50
2022-10-13T02:37:29.996Z,32.25
2022-10-13T02:39:56.736Z,34.30
2022-10-13T02:42:23.624Z,32.17
2022-10-13T02:44:50.402Z,32.10
2022-10-13T02:47:17.176Z,33.28
2022-10-13T02:49:43.888Z,33.35
2022-10-13T02:52:10.734Z,33.60
2022-10-13T02:54:37.338Z,32.55
2022-10-13T02:57:04.072Z,31.05
2022-10-13T02:59:30.813Z,33.08
2022-10-13T03:01:58.415Z,33.60
2022-10-13T03:04:25.513Z,33.97
2022-10-13T03:06:52.225Z,33.65
2022-10-13T03:09:18.857Z,33.28
2022-10-13T03:11:45.512Z,33.25
2022-10-13T03:14:12.389Z,33.35
2022-10-13T03:16:39.117Z,31.42
2022-10-13T03:19:05.956Z,29.63
2022-10-13T03:21:32.632Z,28.98
2022-10-13T03:23:59.517Z,29.67
2022-10-13T03:26:26.165Z,29.25
2022-10-13T03:28:53.157Z,30.65
2022-10-13T03:31:20.055Z,30.92
2022-10-13T03:33:46.777Z,32.90
2022-10-13T03:36:13.660Z,34.60
2022-10-13T03:38:40.703Z,35.90
2022-10-13T03:41:12.639Z,35.75
2022-10-13T03:43:40.503Z,37.10
2022-10-13T03:46:07.980Z,36.67
2022-10-13T03:48:36.004Z,39.20
2022-10-13T03:51:08.306Z,37.70
2022-10-13T03:56:01.880Z,37.83
2022-10-13T03:58:29.191Z,40.97
2022-10-13T04:00:56.317Z,41.13
2022-10-13T04:03:24.357Z,41.65
2022-10-13T04:05:51.244Z,45.60
2022-10-13T04:08:17.985Z,54.50
2022-10-13T04:10:44.584Z,59.70
2022-10-13T04:13:11.267Z,69.53
2022-10-13T04:15:41.148Z,73.10
2022-10-13T04:18:08.502Z,61.65
2022-10-13T04:20:39.985Z,50.15
2022-10-13T04:23:07.397Z,44.95
2022-10-13T04:25:38.550Z,41.88
2022-10-13T04:28:07.318Z,43.45
2022-10-13T04:30:35.051Z,40.55
2022-10-13T04:33:01.799Z,43.08
2022-10-13T04:35:28.853Z,40.60
2022-10-13T04:37:57.997Z,40.78
2022-10-13T04:40:26.006Z,39.40
2022-10-13T04:42:52.653Z,40.05
2022-10-13T04:45:19.365Z,36.42
2022-10-13T04:47:45.989Z,34.88
2022-10-13T04:50:12.737Z,36.67
2022-10-13T04:52:39.305Z,36.63
2022-10-13T04:55:06.499Z,36.28
2022-10-13T04:57:33.302Z,36.38
2022-10-13T05:00:00.294Z,38.78
2022-10-13T05:02:27.011Z,39.13
2022-10-13T05:04:53.659Z,33.08
2022-10-13T05:07:20.313Z,37.03
2022-10-13T05:09:46.924Z,35.45
2022-10-13T05:12:13.632Z,31.95
2022-10-13T05:14:40.336Z,30.48
2022-10-13T05:17:07.180Z,32.58
2022-10-13T05:19:33.957Z,31.00
2022-10-13T05:22:00.702Z,30.13
2022-10-13T05:24:39.053Z,31.40
2022-10-13T05:27:08.891Z,31.50
2022-10-13T05:29:35.937Z,31.75
2022-10-13T05:32:02.935Z,29.38
2022-10-13T05:34:29.512Z,27.85
2022-10-13T05:36:56.206Z,28.95
2022-10-13T05:39:23.198Z,31.00
2022-10-13T05:41:49.920Z,33.78
2022-10-13T05:44:17.563Z,33.42
2022-10-13T05:46:44.609Z,32.13
2022-10-13T05:49:11.339Z,25.83
2022-10-13T05:51:45.971Z,26.73
2022-10-13T05:54:33.948Z,27.38
2022-10-13T05:57:04.950Z,24.05
2022-10-13T05:59:36.087Z,27.02
2022-10-13T06:02:04.354Z,23.67
2022-10-13T06:04:36.986Z,24.63
2022-10-13T06:07:04.130Z,24.58
2022-10-13T06:09:35.833Z,26.17
2022-10-13T06:12:02.449Z,26.30
2022-10-13T06:14:29.126Z,25.90
2022-10-13T06:16:56.198Z,25.92
2022-10-13T06:19:23.100Z,27.20
2022-10-13T06:21:49.703Z,26.50
2022-10-13T06:24:16.440Z,28.95
2022-10-13T06:26:43.014Z,26.27
2022-10-13T06:29:09.804Z,23.77
2022-10-13T06:31:36.442Z,26.40
2022-10-13T06:34:03.141Z,25.05
2022-10-13T06:36:29.748Z,26.23
2022-10-13T06:38:56.451Z,25.30
2022-10-13T06:41:23.467Z,23.77
2022-10-13T06:43:50.149Z,26.45
2022-10-13T06:46:16.926Z,24.15
2022-10-13T06:48:43.659Z,29.80
2022-10-13T06:51:11.610Z,28.35
2022-10-13T06:53:38.275Z,28.85
2022-10-13T06:56:07.010Z,27.73
2022-10-13T06:58:35.387Z,26.10
2022-10-13T07:01:03.024Z,25.58
2022-10-13T07:03:29.791Z,23.90
2022-10-13T07:06:01.527Z,24.00
2022-10-13T07:08:28.300Z,21.85
2022-10-13T07:10:54.993Z,24.05
2022-10-13T07:15:53.215Z,20.90
2022-10-13T07:18:19.868Z,19.70
2022-10-13T07:20:46.424Z,18.65
2022-10-13T07:23:13.152Z,19.90
2022-10-13T07:25:39.866Z,19.60
2022-10-13T07:28:06.454Z,17.20
2022-10-13T07:30:33.138Z,18.70
2022-10-13T07:33:00.325Z,19.25
2022-10-13T07:35:30.455Z,16.50
2022-10-13T07:37:57.797Z,16.90
2022-10-13T07:40:25.002Z,18.38
2022-10-13T07:42:51.664Z,23.60
2022-10-13T07:45:18.475Z,23.55
2022-10-13T07:47:45.136Z,22.55
2022-10-13T07:50:12.047Z,23.40
2022-10-13T07:52:39.792Z,23.20
2022-10-13T07:55:07.230Z,21.83
2022-10-13T07:57:34.100Z,22.27
2022-10-13T08:00:03.529Z,18.60
2022-10-13T08:02:30.600Z,20.10
2022-10-13T08:04:57.201Z,20.67
2022-10-13T08:07:24.071Z,19.65
2022-10-13T08:09:50.637Z,17.88
2022-10-13T08:12:17.584Z,19.17
2022-10-13T08:14:44.718Z,18.00
2022-10-13T08:17:11.491Z,20.25
2022-10-13T08:19:38.161Z,21.05
2022-10-13T08:22:09.503Z,19.27
2022-10-13T08:24:37.034Z,18.58
2022-10-13T08:27:03.916Z,18.67
2022-10-13T08:29:30.629Z,16.92
2022-10-13T08:31:57.419Z,17.58
2022-10-13T08:34:24.653Z,17.92
2022-10-13T08:36:54.585Z,18.23
2022-10-13T08:39:22.702Z,16.95
2022-10-13T08:41:49.725Z,17.70
2022-10-13T08:47:18.541Z,18.67
2022-10-13T08:49:46.347Z,18.10
2022-10-13T08:52:25.533Z,18.20
2022-10-13T08:54:54.915Z,18.35
2022-10-13T08:57:22.605Z,18.50
2022-10-13T08:59:49.963Z,18.05
2022-10-13T09:02:26.629Z,19.33
2022-10-13T09:04:54.247Z,18.10
2022-10-13T09:07:29.657Z,19.05
2022-10-13T09:09:56.505Z,18.08
2022-10-13T09:12:25.071Z,18.15
2022-10-13T09:15:05.817Z,19.33
2022-10-13T09:17:33.927Z,18.25
2022-10-13T09:20:06.646Z,18.75
2022-10-13T09:22:36.395Z,19.00
2022-10-13T09:25:18.413Z,18.13
2022-10-13T09:27:58.162Z,17.65
2022-10-13T09:30:30.692Z,20.10
2022-10-13T09:33:09.594Z,18.50
2022-10-13T09:35:37.441Z,17.70
2022-10-13T09:38:05.934Z,18.17
2022-10-13T09:40:33.897Z,18.13
2022-10-13T09:43:02.339Z,18.80
2022-10-13T09:45:31.094Z,17.40
2022-10-13T09:48:04.885Z,16.20
2022-10-13T09:50:35.463Z,16.02
2022-10-13T09:53:38.396Z,16.55
2022-10-13T09:56:31.022Z,13.55
2022-10-13T09:59:36.315Z,13.80
2022-10-13T10:02:34.024Z,14.40
2022-10-13T10:05:07.893Z,14.55
2022-10-13T10:07:34.602Z,14.52
2022-10-13T10:10:05.702Z,15.25
2022-10-13T10:12:37.510Z,15.70
2022-10-13T10:15:17.290Z,15.52
2022-10-13T10:17:52.689Z,14.98
2022-10-13T10:20:31.419Z,14.63
2022-10-13T10:23:07.770Z,16.65
2022-10-13T10:25:42.766Z,14.18
2022-10-13T10:28:15.459Z,11.73
2022-10-13T10:31:21.095Z,13.73
2022-10-13T10:34:13.613Z,13.80
2022-10-13T10:36:57.447Z,13.20
2022-10-13T10:39:36.880Z,15.00
2022-10-13T10:42:13.609Z,14.80
2022-10-13T10:44:43.596Z,16.35
2022-10-13T10:47:43.260Z,15.38
2022-10-13T10:50:16.104Z,16.08
2022-10-13T10:53:13.740Z,17.77
2022-10-13T10:55:53.772Z,16.35
2022-10-13T10:58:38.906Z,16.35
2022-10-13T11:01:11.616Z,17.75
2022-10-13T11:03:54.128Z,15.93
2022-10-13T11:06:20.766Z,17.38
2022-10-13T11:08:49.600Z,18.10
2022-10-13T11:11:26.569Z,16.88
2022-10-13T11:13:55.707Z,17.42
2022-10-13T11:16:32.943Z,18.17
2022-10-13T11:19:22.639Z,16.65
2022-10-13T11:21:55.311Z,16.15
2022-10-13T11:24:34.277Z,17.10
2022-10-13T11:27:16.213Z,16.88
2022-10-13T11:29:46.671Z,17.00
2022-10-13T11:32:25.803Z,16.23
2022-10-13T11:35:02.785Z,15.80
2022-10-13T11:37:35.774Z,15.10
2022-10-13T11:40:08.499Z,15.90
2022-10-13T11:42:56.896Z,15.60
2022-10-13T11:45:40.520Z,14.20
2022-10-13T11:48:29.262Z,14.00
2022-10-13T11:51:32.536Z,12.00
2022-10-13T11:54:08.464Z,12.30
2022-10-13T11:56:48.340Z,12.77
2022-10-13T11:59:21.100Z,12.65
2022-10-13T12:01:48.193Z,12.55
2022-10-13T12:04:15.542Z,11.85
2022-10-13T12:06:42.385Z,12.25
2022-10-13T12:09:20.812Z,13.45
2022-10-13T12:11:57.476Z,13.00
2022-10-13T12:14:31.285Z,12.65
2022-10-13T12:17:00.060Z,12.38
2022-10-13T12:19:29.783Z,12.55
2022-10-13T12:21:59.085Z,12.20
2022-10-13T12:24:29.263Z,11.75
2022-10-13T12:26:57.008Z,11.45
2022-10-13T12:29:27.607Z,12.25
2022-10-13T12:31:55.030Z,11.18
2022-10-13T12:34:32.826Z,11.05
2022-10-13T12:37:03.133Z,9.80
2022-10-13T12:39:32.723Z,9.77
2022-10-13T12:42:02.801Z,8.48
2022-10-13T12:44:32.559Z,9.40
2022-10-13T12:47:02.035Z,9.50
2022-10-13T12:49:34.352Z,9.65
2022-10-13T12:52:16.945Z,9.55
2022-10-13T12:54:52.581Z,10.27
2022-10-13T12:57:37.631Z,8.52
2022-10-13T13:00:19.805Z,8.95
2022-10-13T13:02:58.762Z,9.35
2022-10-13T13:05:37.337Z,8.65
2022-10-13T13:08:06.508Z,9.57
2022-10-13T13:10:35.369Z,7.93
2022-10-13T13:13:15.184Z,8.70
2022-10-13T13:15:41.948Z,7.95
2022-10-13T13:18:26.838Z,8.75
2022-10-13T13:20:54.459Z,8.30
2022-10-13T13:23:22.449Z,8.82
2022-10-13T13:26:04.499Z,9.25
2022-10-13T13:31:00.998Z,10.25
2022-10-13T13:33:27.885Z,9.45
2022-10-13T13:35:54.698Z,7.72
2022-10-13T13:38:21.323Z,7.97
2022-10-13T13:40:48.111Z,7.18
2022-10-13T13:43:14.711Z,6.82
2022-10-13T13:45:41.522Z,6.57
2022-10-13T13:48:10.963Z,7.05
2022-10-13T13:50:37.933Z,6.72
2022-10-13T13:53:06.452Z,7.15
2022-10-13T13:55:33.130Z,6.75
2022-10-13T13:58:00.160Z,8.00
2022-10-13T14:00:27.126Z,7.38
2022-10-13T14:02:53.781Z,7.85
2022-10-13T14:05:20.482Z,6.60
2022-10-13T14:07:47.175Z,7.68
2022-10-13T14:10:14.221Z,7.63
2022-10-13T14:12:41.068Z,7.22
2022-10-13T14:15:08.612Z,6.55
2022-10-13T14:17:35.206Z,7.00
2022-10-13T14:20:01.889Z,7.35
2022-10-13T14:22:28.593Z,7.07
2022-10-13T14:24:55.289Z,7.43
2022-10-13T14:27:22.023Z,7.68
2022-10-13T14:29:48.663Z,7.50
2022-10-13T14:32:15.766Z,7.50
2022-10-13T14:34:42.367Z,9.15
2022-10-13T14:37:09.085Z,7.68
2022-10-13T14:39:35.632Z,7.80
2022-10-13T14:42:02.244Z,9.02
2022-10-13T14:44:29.019Z,8.07
2022-10-13T14:46:55.792Z,7.30
2022-10-13T14:49:22.439Z,7.82
2022-10-13T14:51:49.075Z,7.88
2022-10-13T14:54:16.244Z,5.85
2022-10-13T14:56:44.669Z,5.80
2022-10-13T14:59:13.199Z,5.70
2022-10-13T15:01:43.586Z,5.60
2022-10-13T15:04:11.227Z,5.18
2022-10-13T15:06:40.099Z,5.15
2022-10-13T15:11:36.172Z,5.72
2022-10-13T15:14:03.196Z,5.40
2022-10-13T15:16:33.437Z,5.90
2022-10-13T15:19:01.161Z,4.88
2022-10-13T15:21:27.930Z,4.97
2022-10-13T15:23:54.504Z,4.63
2022-10-13T15:26:21.790Z,4.85
2022-10-13T15:28:51.398Z,4.82
2022-10-13T15:31:19.465Z,5.57
2022-10-13T15:33:48.250Z,4.60
2022-10-13T15:36:15.001Z,5.32
2022-10-13T15:38:42.224Z,4.57
2022-10-13T15:41:10.416Z,4.97
2022-10-13T15:43:37.560Z,5.10
2022-10-13T15:46:06.985Z,5.80
2022-10-13T15:48:34.893Z,5.53
2022-10-13T15:51:09.029Z,5.35
2022-10-13T15:53:35.930Z,5.72
2022-10-13T15:56:03.023Z,5.50
2022-10-13T15:58:29.742Z,6.45
2022-10-13T16:00:56.693Z,5.07
2022-10-13T16:03:24.475Z,5.40
2022-10-13T16:05:51.208Z,5.45
2022-10-13T16:08:17.864Z,5.70
2022-10-13T16:10:44.740Z,4.93
2022-10-13T16:13:14.311Z,5.38
2022-10-13T16:15:42.357Z,5.47
2022-10-13T16:18:09.218Z,5.38
2022-10-13T16:20:38.059Z,5.45
2022-10-13T16:23:05.198Z,5.68
2022-10-13T16:25:32.299Z,5.35
2022-10-13T16:28:01.025Z,7.35
2022-10-13T16:30:30.361Z,6.38
2022-10-13T16:32:57.590Z,6.28
2022-10-13T16:35:24.220Z,5.75
2022-10-13T16:37:50.865Z,5.53
2022-10-13T16:40:18.006Z,6.20
2022-10-13T16:42:45.465Z,5.97
2022-10-13T16:45:13.201Z,5.70
2022-10-13T16:47:40.265Z,6.25
2022-10-13T16:50:09.794Z,5.13
2022-10-13T16:52:37.994Z,5.70
2022-10-13T16:55:06.015Z,4.93
2022-10-13T16:57:33.108Z,6.18
2022-10-13T17:00:00.299Z,9.93
2022-10-13T17:02:26.968Z,6.47
2022-10-13T17:04:53.602Z,6.05
2022-10-13T17:07:20.666Z,6.95
2022-10-13T17:09:47.832Z,6.13
2022-10-13T17:12:14.771Z,7.13
2022-10-13T17:14:41.573Z,6.63
2022-10-13T17:17:08.190Z,6.57
2022-10-13T17:19:34.997Z,6.35
2022-10-13T17:22:01.680Z,5.82
2022-10-13T17:24:29.926Z,5.53
2022-10-13T17:26:56.682Z,5.88
2022-10-13T17:29:23.670Z,5.25
2022-10-13T17:31:50.688Z,7.38
2022-10-13T17:34:17.316Z,5.95
2022-10-13T17:36:44.255Z,5.45
2022-10-13T17:39:11.944Z,5.13
2022-10-13T17:41:38.622Z,7.78
2022-10-13T17:44:05.283Z,6.70
2022-10-13T17:46:37.865Z,9.68
2022-10-13T17:49:10.616Z,9.27
2022-10-13T17:51:37.913Z,9.93
2022-10-13T17:54:05.393Z,9.98
2022-10-13T17:56:32.273Z,8.73
2022-10-13T17:59:00.568Z,9.70
2022-10-13T18:01:31.699Z,6.60
2022-10-13T18:04:04.558Z,9.32
2022-10-13T18:06:38.479Z,8.52
2022-10-13T18:09:12.202Z,7.78
2022-10-13T18:11:39.232Z,9.30
2022-10-13T18:14:07.065Z,9.07
2022-10-13T18:16:34.697Z,8.20
2022-10-13T18:19:01.750Z,8.77
2022-10-13T18:21:29.293Z,7.75
2022-10-13T18:24:01.251Z,6.70
2022-10-13T18:26:32.306Z,7.03
2022-10-13T18:28:59.309Z,7.03
2022-10-13T18:31:28.951Z,8.40
2022-10-13T18:33:56.990Z,6.65
2022-10-13T18:36:29.401Z,7.75
2022-10-13T18:39:11.856Z,7.20
2022-10-13T18:41:39.061Z,6.88
2022-10-13T18:44:06.523Z,7.05
2022-10-13T18:46:33.708Z,7.22
2022-10-13T18:49:00.824Z,6.63
2022-10-13T18:51:34.728Z,7.05
2022-10-13T18:54:02.797Z,7.50
2022-10-13T18:56:31.222Z,8.05
2022-10-13T18:59:00.599Z,7.88
2022-10-13T19:01:30.691Z,7.43
2022-10-13T19:03:58.014Z,7.60
2022-10-13T19:06:27.387Z,7.93
2022-10-13T19:09:00.808Z,7.75
2022-10-13T19:11:29.272Z,7.78
2022-10-13T19:13:56.324Z,7.72
2022-10-13T19:16:24.581Z,7.40
2022-10-13T19:18:52.022Z,7.15
2022-10-13T19:21:20.589Z,8.10
2022-10-13T19:23:47.444Z,7.60
2022-10-13T19:26:26.223Z,7.43
2022-10-13T19:28:58.477Z,8.02
2022-10-13T19:31:27.905Z,8.20
2022-10-13T19:33:55.324Z,8.68
2022-10-13T19:36:33.284Z,8.52
2022-10-13T19:39:01.033Z,8.73
2022-10-13T19:41:29.795Z,8.50
2022-10-13T19:43:56.423Z,8.88
2022-10-13T19:46:23.601Z,9.15
2022-10-13T19:48:50.412Z,8.45
2022-10-13T19:51:17.359Z,10.18
2022-10-13T19:53:47.129Z,10.30
2022-10-13T19:56:26.595Z,9.23
2022-10-13T19:58:54.217Z,9.82
2022-10-13T20:01:22.088Z,9.93
2022-10-13T20:03:49.365Z,9.57
2022-10-13T20:06:17.273Z,9.20
2022-10-13T20:08:45.556Z,9.00
2022-10-13T20:11:17.279Z,8.77
2022-10-13T20:13:47.665Z,8.80
2022-10-13T20:16:17.307Z,9.20
2022-10-13T20:18:44.502Z,9.07
2022-10-13T20:21:12.751Z,8.82
2022-10-13T20:23:40.942Z,9.85
2022-10-13T20:26:09.847Z,8.68
2022-10-13T20:28:42.865Z,9.27
2022-10-13T20:31:12.896Z,9.43
2022-10-13T20:33:40.052Z,9.63
2022-10-13T20:36:09.268Z,10.43
2022-10-13T20:38:36.319Z,9.95
2022-10-13T20:41:06.672Z,9.68
2022-10-13T20:43:37.109Z,10.23
2022-10-13T20:46:06.955Z,10.75
2022-10-13T20:49:05.219Z,11.23
2022-10-13T20:51:25.134Z,9.85
2022-10-13T20:53:52.238Z,8.88
2022-10-13T20:56:25.271Z,8.48
2022-10-13T20:58:52.372Z,9.10
2022-10-13T21:01:20.965Z,9.15
2022-10-13T21:03:54.331Z,8.85
2022-10-13T21:06:22.441Z,9.25
2022-10-13T21:08:49.152Z,8.98
2022-10-13T21:11:17.717Z,8.20
2022-10-13T21:13:45.169Z,7.65
2022-10-13T21:16:18.076Z,8.68
2022-10-13T21:18:49.507Z,8.73
2022-10-13T21:21:21.525Z,8.10
2022-10-13T21:23:53.014Z,8.15
2022-10-13T21:26:22.133Z,7.75
2022-10-13T21:28:49.967Z,8.35
2022-10-13T21:31:18.593Z,7.82
2022-10-13T21:33:45.589Z,8.30
2022-10-13T21:36:18.078Z,7.03
2022-10-13T21:38:45.886Z,7.40
2022-10-13T21:41:14.331Z,7.53
2022-10-13T21:43:41.471Z,6.53
2022-10-13T21:46:18.308Z,8.13
2022-10-13T21:48:46.400Z,6.93
2022-10-13T21:51:19.981Z,6.68
2022-10-13T21:53:51.812Z,7.18
2022-10-13T21:56:19.209Z,6.57
2022-10-13T21:58:46.415Z,7.05
2022-10-13T22:01:13.224Z,6.85
2022-10-13T22:03:41.660Z,6.50
2022-10-13T22:06:18.538Z,6.88
2022-10-13T22:08:47.605Z,7.05
2022-10-13T22:11:14.842Z,6.07
2022-10-13T22:13:41.969Z,6.50
2022-10-13T22:16:12.700Z,6.95
2022-10-13T22:18:39.556Z,6.80
2022-10-13T22:21:08.881Z,6.57
2022-10-13T22:23:35.637Z,6.57
2022-10-13T22:26:02.427Z,6.43
2022-10-13T22:28:32.324Z,6.72
2022-10-13T22:31:06.633Z,7.00
2022-10-13T22:33:35.193Z,6.78
2022-10-13T22:36:07.444Z,6.00
2022-10-13T22:41:07.753Z,6.32
2022-10-13T22:43:35.754Z,4.95
2022-10-13T22:46:03.034Z,5.60
2022-10-13T22:48:29.725Z,6.20
2022-10-13T22:50:56.797Z,5.80
2022-10-13T22:53:23.794Z,5.63
2022-10-13T22:55:50.485Z,5.50
2022-10-13T22:58:17.804Z,5.68
2022-10-13T23:00:44.485Z,5.57
2022-10-13T23:03:14.062Z,4.80
2022-10-13T23:05:42.614Z,5.80
2022-10-13T23:08:11.192Z,5.15
2022-10-13T23:10:37.864Z,5.30
2022-10-13T23:13:05.600Z,5.47
2022-10-13T23:15:32.308Z,5.68
2022-10-13T23:17:59.012Z,5.05
2022-10-13T23:20:25.610Z,5.18
2022-10-13T23:22:52.183Z,5.32
2022-10-13T23:25:18.748Z,5.07
2022-10-13T23:27:45.595Z,4.50
2022-10-13T23:30:12.845Z,4.35
2022-10-13T23:32:39.588Z,4.68
2022-10-13T23:35:06.732Z,4.68
2022-10-13T23:37:33.405Z,4.32
2022-10-13T23:39:59.950Z,4.32
2022-10-13T23:42:26.560Z,4.13
2022-10-13T23:44:53.211Z,3.88
2022-10-13T23:47:20.408Z,3.08
2022-10-13T23:49:47.150Z,4.80
2022-10-13T23:52:13.739Z,3.20
2022-10-13T23:54:40.537Z,3.25
2022-10-13T23:57:07.603Z,3.17
2022-10-13T23:59:34.300Z,2.90
